Time;durP1;ratioP1;P1;durP2;ratioP2;P2;SDS_P1;SDS_P2;PMS_P1;PMS_P2;Temp;Humidity;BMP_temperature;BMP_pressure;BME280_temperature;BME280_humidity;BME280_pressure;Samples;Min_cycle;Max_cycle;Signal;HPM_P1;HPM_P2
2021/03/18 00:02:07;;;;;;;15.55;4.20;;;-0.20;92.60;;;;;;4959163;28;20034;-82
2021/03/18 00:04:33;;;;;;;18.27;5.60;;;-0.20;92.70;;;;;;4961371;28;20038;-83
2021/03/18 00:06:59;;;;;;;7.78;4.43;;;-0.20;92.80;;;;;;4973862;28;20090;-82
2021/03/18 00:09:26;;;;;;;10.63;4.25;;;-0.10;92.80;;;;;;4954240;28;20047;-83
2021/03/18 00:11:52;;;;;;;12.93;4.05;;;-0.20;92.80;;;;;;4974178;28;20379;-82
2021/03/18 00:14:21;;;;;;;10.15;4.72;;;-0.20;92.80;;;;;;4985078;28;20121;-82
2021/03/18 00:16:48;;;;;;;18.70;4.65;;;-0.20;92.80;;;;;;4963496;28;20342;-83
2021/03/18 00:19:14;;;;;;;9.05;3.85;;;-0.30;92.80;;;;;;4971826;28;20045;-83
2021/03/18 00:21:41;;;;;;;10.07;3.53;;;-0.30;92.80;;;;;;4969068;28;20030;-83
2021/03/18 00:24:08;;;;;;;13.98;4.15;;;-0.30;92.90;;;;;;4956418;28;20034;-83
2021/03/18 00:26:35;;;;;;;8.95;3.90;;;-0.30;92.90;;;;;;4965722;28;20026;-83
2021/03/18 00:29:04;;;;;;;15.68;4.20;;;-0.30;92.90;;;;;;4966311;28;20046;-83
2021/03/18 00:31:32;;;;;;;11.35;4.45;;;-0.30;93.00;;;;;;4966025;28;20472;-83
2021/03/18 00:33:59;;;;;;;9.05;3.72;;;-0.40;92.90;;;;;;4997599;28;20030;-86
2021/03/18 00:36:26;;;;;;;10.50;4.05;;;-0.40;92.90;;;;;;4974445;28;20038;-85
2021/03/18 00:38:53;;;;;;;16.23;4.65;;;-0.40;92.90;;;;;;4982033;28;20461;-83
2021/03/18 00:41:19;;;;;;;10.95;4.25;;;-0.40;92.90;;;;;;4963279;28;20031;-83
2021/03/18 00:43:45;;;;;;;9.90;4.05;;;-0.40;92.90;;;;;;4955976;28;20474;-83
2021/03/18 00:46:11;;;;;;;15.23;4.13;;;-0.40;93.00;;;;;;4969659;28;20034;-83
2021/03/18 00:48:38;;;;;;;14.85;4.57;;;-0.40;93.00;;;;;;4971864;28;20485;-83
2021/03/18 00:51:12;;;;;;;14.20;5.40;;;-0.40;93.00;;;;;;4986609;28;20053;-83
2021/03/18 00:53:41;;;;;;;12.27;5.30;;;-0.40;93.10;;;;;;4986483;28;20133;-83
2021/03/18 00:56:12;;;;;;;18.30;5.22;;;-0.40;93.10;;;;;;4988199;28;20038;-83
2021/03/18 00:58:42;;;;;;;17.02;5.72;;;-0.40;93.10;;;;;;4985464;28;20038;-83
2021/03/18 01:01:08;;;;;;;19.75;6.18;;;-0.40;93.10;;;;;;4955839;28;20040;-83
2021/03/18 01:03:38;;;;;;;18.85;6.03;;;-0.30;93.20;;;;;;4938476;28;20102;-83
2021/03/18 01:06:10;;;;;;;15.60;5.95;;;-0.30;93.20;;;;;;4989371;28;20128;-83
2021/03/18 01:08:38;;;;;;;19.88;5.80;;;-0.30;93.50;;;;;;4974642;28;20043;-83
2021/03/18 01:11:10;;;;;;;19.83;6.15;;;-0.30;93.20;;;;;;4954278;28;20358;-83
2021/03/18 01:13:37;;;;;;;14.55;5.70;;;-0.30;93.30;;;;;;4970337;28;20493;-83
2021/03/18 01:16:09;;;;;;;14.95;5.53;;;-0.20;93.30;;;;;;4962183;28;20317;-83
2021/03/18 01:18:53;;;;;;;11.50;5.75;;;-0.20;93.40;;;;;;4972446;28;20038;-85
2021/03/18 01:21:22;;;;;;;18.02;6.07;;;-0.20;93.40;;;;;;4992110;28;20102;-86
2021/03/18 01:23:48;;;;;;;17.95;5.95;;;-0.20;93.40;;;;;;4978702;28;20381;-86
2021/03/18 01:26:14;;;;;;;16.55;5.40;;;-0.20;93.40;;;;;;4967998;28;20035;-85
2021/03/18 01:28:40;;;;;;;14.60;6.13;;;-0.20;93.50;;;;;;4984756;28;20081;-85
2021/03/18 01:31:07;;;;;;;15.40;5.32;;;-0.10;93.50;;;;;;4988305;28;20042;-86
2021/03/18 01:33:34;;;;;;;15.18;6.18;;;-0.10;93.50;;;;;;4955818;28;20432;-86
2021/03/18 01:36:01;;;;;;;15.65;4.97;;;-0.10;93.50;;;;;;4987701;28;20037;-86
2021/03/18 01:38:31;;;;;;;12.90;4.75;;;-0.10;93.60;;;;;;4953989;28;20105;-86
2021/03/18 01:40:58;;;;;;;18.30;5.75;;;-0.10;93.60;;;;;;4971922;28;20049;-83
2021/03/18 01:43:26;;;;;;;19.08;5.53;;;-0.10;93.50;;;;;;4987825;28;20038;-83
2021/03/18 01:45:52;;;;;;;12.90;4.75;;;-0.10;93.50;;;;;;4968984;28;20347;-83
2021/03/18 01:48:18;;;;;;;17.48;5.32;;;-0.10;93.50;;;;;;4980743;28;20092;-83
2021/03/18 01:50:45;;;;;;;14.45;5.22;;;-0.10;93.50;;;;;;4956890;28;20038;-83
2021/03/18 01:53:12;;;;;;;15.48;5.07;;;-0.10;93.50;;;;;;4967863;28;20039;-83
2021/03/18 01:55:43;;;;;;;22.15;6.35;;;-0.10;93.50;;;;;;4953203;28;21200;-82
2021/03/18 01:58:10;;;;;;;16.92;5.53;;;-0.10;93.60;;;;;;4988982;28;20073;-83
2021/03/18 02:00:39;;;;;;;17.83;6.57;;;0.10;93.70;;;;;;4949526;28;20387;-83
2021/03/18 02:03:05;;;;;;;17.60;6.05;;;0.00;93.70;;;;;;4974254;28;20477;-83
2021/03/18 02:05:32;;;;;;;16.08;5.78;;;0.00;93.70;;;;;;4983181;28;20129;-83
2021/03/18 02:07:59;;;;;;;20.38;6.38;;;0.00;93.70;;;;;;4976259;28;20323;-84
2021/03/18 02:10:31;;;;;;;15.25;5.65;;;-0.10;93.70;;;;;;4968534;28;20034;-83
2021/03/18 02:12:58;;;;;;;18.02;6.47;;;-0.10;93.70;;;;;;4971124;28;20038;-86
2021/03/18 02:15:37;;;;;;;14.23;5.97;;;-0.10;93.70;;;;;;4978974;28;20042;-85
2021/03/18 02:18:40;;;;;;;18.70;6.32;;;-0.10;93.70;;;;;;4981025;28;20034;-88
2021/03/18 02:21:06;;;;;;;11.68;5.30;;;-0.10;93.70;;;;;;4998523;28;20073;-88
2021/03/18 02:23:35;;;;;;;18.77;5.93;;;-0.10;93.70;;;;;;4990475;28;20027;-85
2021/03/18 02:26:12;;;;;;;13.98;6.60;;;-0.10;93.70;;;;;;4986171;28;20497;-87
2021/03/18 02:28:58;;;;;;;16.27;6.00;;;-0.10;93.80;;;;;;4992662;28;20350;-85
2021/03/18 02:31:54;;;;;;;14.15;5.72;;;-0.10;93.80;;;;;;4975851;28;20050;-86
2021/03/18 02:34:45;;;;;;;28.52;7.45;;;-0.10;93.80;;;;;;4990037;28;20210;-84
2021/03/18 02:37:13;;;;;;;22.45;7.40;;;0.00;93.80;;;;;;4975542;28;20046;-84
2021/03/18 02:39:52;;;;;;;19.98;7.22;;;0.00;93.80;;;;;;4972184;28;20097;-87
2021/03/18 02:42:23;;;;;;;17.58;6.30;;;-0.10;93.80;;;;;;4981015;28;20052;-85
2021/03/18 02:44:52;;;;;;;14.77;6.10;;;-0.10;93.80;;;;;;4988810;28;20039;-88
2021/03/18 02:47:21;;;;;;;11.38;5.07;;;-0.10;93.80;;;;;;4983182;28;20137;-88
2021/03/18 02:49:50;;;;;;;18.40;5.40;;;-0.10;93.80;;;;;;4977379;28;20046;-85
2021/03/18 02:52:20;;;;;;;18.73;6.40;;;-0.10;93.80;;;;;;4992598;28;20035;-87
2021/03/18 02:54:51;;;;;;;19.42;6.53;;;-0.10;93.80;;;;;;4988566;28;20117;-84
2021/03/18 02:57:18;;;;;;;17.50;6.78;;;-0.10;93.80;;;;;;4984733;28;20504;-85
2021/03/18 02:59:45;;;;;;;17.45;7.80;;;-0.10;93.80;;;;;;4963861;28;21066;-88
2021/03/18 03:02:15;;;;;;;19.15;5.85;;;0.00;93.90;;;;;;4986703;28;20035;-88
2021/03/18 03:04:42;;;;;;;18.95;5.88;;;-0.10;93.90;;;;;;5000470;28;20035;-86
2021/03/18 03:07:11;;;;;;;21.90;6.63;;;-0.10;93.90;;;;;;4990227;28;20096;-85
2021/03/18 03:09:40;;;;;;;18.95;6.90;;;-0.10;93.90;;;;;;4994019;28;20092;-85
2021/03/18 03:12:08;;;;;;;29.17;8.77;;;0.00;94.00;;;;;;4992099;28;20045;-86
2021/03/18 03:14:34;;;;;;;22.55;7.30;;;0.00;94.00;;;;;;4959164;28;20049;-86
2021/03/18 03:17:02;;;;;;;20.77;7.32;;;0.00;94.10;;;;;;4989074;28;20098;-87
2021/03/18 03:19:39;;;;;;;18.08;7.85;;;-0.10;94.00;;;;;;4988964;28;20045;-84
2021/03/18 03:22:06;;;;;;;14.85;7.97;;;-0.10;94.10;;;;;;4993151;28;20031;-84
2021/03/18 03:24:37;;;;;;;19.60;7.38;;;-0.10;94.40;;;;;;4994283;28;20093;-86
2021/03/18 03:27:05;;;;;;;21.00;6.85;;;-0.10;94.10;;;;;;4992539;28;20102;-84
2021/03/18 03:29:31;;;;;;;20.98;7.38;;;-0.10;94.10;;;;;;4976650;28;20100;-86
2021/03/18 03:31:58;;;;;;;20.73;7.28;;;-0.10;94.10;;;;;;4986986;28;20041;-83
2021/03/18 03:34:24;;;;;;;20.55;7.70;;;-0.20;94.10;;;;;;4992906;28;20065;-83
2021/03/18 03:36:50;;;;;;;20.02;7.30;;;-0.10;94.20;;;;;;4974245;28;20030;-84
2021/03/18 03:39:16;;;;;;;16.23;6.40;;;-0.20;94.20;;;;;;4978779;28;20042;-85
2021/03/18 03:41:44;;;;;;;21.77;7.55;;;-0.20;94.20;;;;;;4998144;28;20062;-84
2021/03/18 03:44:10;;;;;;;21.60;8.32;;;-0.20;94.20;;;;;;4977950;28;20070;-87
2021/03/18 03:46:36;;;;;;;20.92;6.65;;;-0.20;94.30;;;;;;4982671;28;20050;-88
2021/03/18 03:49:04;;;;;;;18.95;7.30;;;-0.20;94.40;;;;;;4981271;28;20176;-88
2021/03/18 03:51:53;;;;;;;24.80;8.00;;;-0.20;94.40;;;;;;4977110;28;20045;-89
2021/03/18 03:54:22;;;;;;;14.35;6.75;;;-0.10;94.40;;;;;;5002725;28;20034;-86
2021/03/18 03:57:14;;;;;;;27.42;8.27;;;0.00;94.40;;;;;;5002580;28;20049;-87
2021/03/18 03:59:43;;;;;;;19.17;7.05;;;-0.10;94.40;;;;;;4991472;28;20054;-85
2021/03/18 04:02:12;;;;;;;33.50;8.38;;;-0.10;94.40;;;;;;5000239;28;20069;-87
2021/03/18 04:04:45;;;;;;;21.23;7.78;;;0.00;94.50;;;;;;4997709;28;20027;-84
2021/03/18 04:07:22;;;;;;;19.45;7.03;;;0.00;94.50;;;;;;5000917;28;20089;-86
2021/03/18 04:09:49;;;;;;;17.60;6.18;;;0.00;94.40;;;;;;4999076;28;20073;-84
2021/03/18 04:12:18;;;;;;;15.85;6.13;;;0.00;94.40;;;;;;4998161;28;20039;-84
2021/03/18 04:14:52;;;;;;;21.58;9.00;;;0.00;94.50;;;;;;4995430;28;20105;-84
2021/03/18 04:17:18;;;;;;;15.23;6.80;;;0.00;94.50;;;;;;4996437;28;20038;-87
2021/03/18 04:19:52;;;;;;;17.88;7.88;;;0.00;94.50;;;;;;4995966;28;20058;-87
2021/03/18 04:22:20;;;;;;;22.88;7.05;;;0.00;94.50;;;;;;4997428;28;20533;-87
2021/03/18 04:24:48;;;;;;;11.13;6.20;;;0.00;94.50;;;;;;4997316;28;20121;-86
2021/03/18 04:27:16;;;;;;;13.90;6.55;;;0.00;94.50;;;;;;4995227;28;20035;-87
2021/03/18 04:29:43;;;;;;;17.40;6.70;;;0.00;94.60;;;;;;4994932;28;20068;-84
2021/03/18 04:32:11;;;;;;;19.60;7.75;;;0.10;94.60;;;;;;4994320;28;20038;-86
2021/03/18 04:34:38;;;;;;;14.52;7.10;;;0.10;94.60;;;;;;4980737;28;20027;-88
2021/03/18 04:37:07;;;;;;;11.85;5.88;;;0.00;94.60;;;;;;4995828;28;20411;-87
2021/03/18 04:39:35;;;;;;;14.40;6.82;;;0.10;94.70;;;;;;4990796;28;20584;-89
2021/03/18 04:42:02;;;;;;;19.63;6.15;;;0.10;94.60;;;;;;4975274;28;20038;-87
2021/03/18 04:44:29;;;;;;;18.42;7.15;;;0.10;94.60;;;;;;4968377;28;20122;-89
2021/03/18 04:46:56;;;;;;;16.38;7.05;;;0.10;94.90;;;;;;4977992;28;20042;-90
2021/03/18 04:49:26;;;;;;;20.60;7.43;;;0.10;94.60;;;;;;5001819;28;20046;-87
2021/03/18 04:51:52;;;;;;;19.58;6.80;;;0.10;94.60;;;;;;4984058;28;20039;-89
2021/03/18 04:54:18;;;;;;;21.38;7.80;;;0.10;94.70;;;;;;4998958;28;20070;-87
2021/03/18 04:56:46;;;;;;;20.05;7.22;;;0.10;94.70;;;;;;4967670;28;20065;-88
2021/03/18 04:59:17;;;;;;;19.40;7.40;;;0.10;94.70;;;;;;4989302;28;20042;-88
2021/03/18 05:01:49;;;;;;;18.65;6.50;;;0.10;94.70;;;;;;4993852;28;20037;-84
2021/03/18 05:04:17;;;;;;;18.08;6.97;;;0.10;94.70;;;;;;5003106;28;20037;-85
2021/03/18 05:06:47;;;;;;;16.92;6.53;;;0.10;94.70;;;;;;4985362;28;20026;-86
2021/03/18 05:09:14;;;;;;;20.50;6.85;;;0.10;94.70;;;;;;4985534;28;20110;-87
2021/03/18 05:11:42;;;;;;;14.32;6.85;;;0.10;94.70;;;;;;4999043;28;20030;-86
2021/03/18 05:14:08;;;;;;;14.20;5.80;;;0.10;94.70;;;;;;4988887;28;20065;-84
2021/03/18 05:16:36;;;;;;;19.63;7.95;;;0.10;94.80;;;;;;4987383;28;20066;-87
2021/03/18 05:19:04;;;;;;;16.95;7.18;;;0.20;94.80;;;;;;4999599;28;20493;-85
2021/03/18 05:21:31;;;;;;;16.95;7.18;;;0.20;94.80;;;;;;4999901;28;20091;-87
2021/03/18 05:23:59;;;;;;;26.83;8.48;;;0.20;94.80;;;;;;4985483;28;20037;-84
2021/03/18 05:26:25;;;;;;;17.13;6.82;;;0.20;94.80;;;;;;5005845;28;20406;-87
2021/03/18 05:28:51;;;;;;;19.45;6.90;;;0.20;94.80;;;;;;4972161;28;20031;-86
2021/03/18 05:31:16;;;;;;;17.17;8.05;;;0.20;94.80;;;;;;4965278;28;20054;-84
2021/03/18 05:33:42;;;;;;;17.45;7.03;;;0.20;94.80;;;;;;4972383;28;20450;-88
2021/03/18 05:36:08;;;;;;;18.60;7.47;;;0.20;95.10;;;;;;4980712;28;20030;-85
2021/03/18 05:38:34;;;;;;;18.05;7.60;;;0.30;94.90;;;;;;4998205;28;20045;-84
2021/03/18 05:41:00;;;;;;;22.35;9.00;;;0.30;94.90;;;;;;4984167;28;20563;-85
2021/03/18 05:43:26;;;;;;;24.85;9.63;;;0.30;94.90;;;;;;4988863;28;20046;-85
2021/03/18 05:45:52;;;;;;;24.42;9.70;;;0.30;94.90;;;;;;4980800;28;20030;-90
2021/03/18 05:48:20;;;;;;;28.70;11.10;;;0.40;94.90;;;;;;4990459;28;20027;-87
2021/03/18 05:50:47;;;;;;;25.35;10.98;;;0.40;95.00;;;;;;5006122;28;20145;-86
2021/03/18 05:53:16;;;;;;;27.58;10.52;;;0.40;95.00;;;;;;4998501;28;20436;-90
2021/03/18 05:55:43;;;;;;;18.90;9.32;;;0.50;95.00;;;;;;4987081;28;20109;-85
2021/03/18 05:58:09;;;;;;;19.13;8.43;;;0.50;95.00;;;;;;4996134;28;20030;-87
2021/03/18 06:00:36;;;;;;;23.52;9.25;;;0.50;95.00;;;;;;4984384;28;20053;-88
2021/03/18 06:03:02;;;;;;;27.50;9.13;;;0.60;95.00;;;;;;4987299;28;20061;-89
2021/03/18 06:05:28;;;;;;;20.55;8.60;;;0.60;95.00;;;;;;4984180;28;20046;-86
2021/03/18 06:07:55;;;;;;;20.48;9.70;;;0.60;95.00;;;;;;4994496;28;20031;-85
2021/03/18 06:10:26;;;;;;;24.48;8.90;;;0.60;95.00;;;;;;4998647;28;20591;-88
2021/03/18 06:12:54;;;;;;;20.48;9.02;;;0.70;95.00;;;;;;5001656;28;20035;-83
2021/03/18 06:15:22;;;;;;;23.92;9.98;;;0.70;95.00;;;;;;4995923;28;20034;-84
2021/03/18 06:17:48;;;;;;;27.42;12.30;;;0.70;95.00;;;;;;4990298;28;20037;-85
2021/03/18 06:20:19;;;;;;;24.95;9.82;;;0.80;95.10;;;;;;4977100;28;20514;-86
2021/03/18 06:22:48;;;;;;;19.15;9.40;;;0.80;95.10;;;;;;4998136;28;20516;-87
2021/03/18 06:25:32;;;;;;;22.75;10.50;;;0.90;95.10;;;;;;4990774;28;20034;-88
2021/03/18 06:28:19;;;;;;;25.35;10.10;;;0.90;95.10;;;;;;4992451;28;20034;-88
2021/03/18 06:31:09;;;;;;;24.95;11.88;;;0.90;95.10;;;;;;4995240;28;20042;-84
2021/03/18 06:33:55;;;;;;;25.33;10.85;;;1.00;95.10;;;;;;4976793;28;20039;-83
2021/03/18 06:36:28;;;;;;;22.67;10.80;;;1.00;95.10;;;;;;4978944;28;20217;-86
2021/03/18 06:39:07;;;;;;;17.33;9.07;;;1.10;95.10;;;;;;4984821;28;20126;-84
2021/03/18 06:41:42;;;;;;;20.52;8.35;;;1.20;95.10;;;;;;4971803;28;20046;-86
2021/03/18 06:44:21;;;;;;;19.63;8.43;;;1.20;95.10;;;;;;4994087;28;20035;-84
2021/03/18 06:46:51;;;;;;;21.85;10.00;;;1.30;95.10;;;;;;4976647;28;20050;-83
2021/03/18 06:49:21;;;;;;;22.42;9.13;;;1.30;95.10;;;;;;4972402;28;20045;-84
2021/03/18 06:52:13;;;;;;;23.33;8.93;;;1.40;95.10;;;;;;4993512;28;20050;-84
2021/03/18 06:54:42;;;;;;;19.88;7.80;;;1.50;95.10;;;;;;5005734;28;20043;-85
2021/03/18 06:57:08;;;;;;;19.33;10.07;;;1.50;95.10;;;;;;4983243;28;20045;-86
2021/03/18 06:59:37;;;;;;;21.08;8.43;;;1.60;95.10;;;;;;4970553;28;20469;-84
2021/03/18 07:02:15;;;;;;;20.17;8.48;;;1.70;95.10;;;;;;4989885;28;20434;-84
2021/03/18 07:04:50;;;;;;;19.00;7.65;;;1.70;95.10;;;;;;4993508;28;20098;-85
2021/03/18 07:07:19;;;;;;;15.90;6.90;;;1.80;95.10;;;;;;4996031;28;20502;-89
2021/03/18 07:09:47;;;;;;;21.75;8.70;;;1.90;95.10;;;;;;4991907;28;20062;-84
2021/03/18 07:12:18;;;;;;;24.30;8.05;;;1.90;95.10;;;;;;5009886;28;20511;-86
2021/03/18 07:14:50;;;;;;;18.05;8.20;;;2.00;95.10;;;;;;4982580;28;20069;-87
2021/03/18 07:17:33;;;;;;;19.77;10.23;;;2.10;95.10;;;;;;4984143;28;20041;-85
2021/03/18 07:20:17;;;;;;;18.67;8.85;;;2.10;95.10;;;;;;4994548;28;20507;-89
2021/03/18 07:22:48;;;;;;;19.15;10.07;;;2.20;95.10;;;;;;5010727;28;20042;-84
2021/03/18 07:25:18;;;;;;;20.38;9.05;;;2.30;95.50;;;;;;4993421;28;20057;-85
2021/03/18 07:27:46;;;;;;;28.27;10.48;;;2.40;95.20;;;;;;5003356;28;20034;-89
2021/03/18 07:30:36;;;;;;;19.10;9.18;;;2.50;95.30;;;;;;4986314;28;20117;-86
2021/03/18 07:33:03;;;;;;;17.55;10.43;;;2.50;95.30;;;;;;4994369;28;20035;-89
2021/03/18 07:35:30;;;;;;;18.50;9.75;;;2.60;95.20;;;;;;4987411;28;20050;-85
2021/03/18 07:37:56;;;;;;;25.40;11.38;;;2.70;95.30;;;;;;4985809;28;20038;-89
2021/03/18 07:40:24;;;;;;;16.55;9.02;;;2.80;95.30;;;;;;5010296;28;20113;-90
2021/03/18 07:42:50;;;;;;;35.22;13.57;;;2.90;95.30;;;;;;4983419;28;20039;-85
2021/03/18 07:45:21;;;;;;;32.67;14.18;;;3.00;95.30;;;;;;4991201;28;20045;-88
2021/03/18 07:47:48;;;;;;;28.48;12.10;;;3.10;95.50;;;;;;4962559;28;20042;-88
2021/03/18 07:50:17;;;;;;;23.95;11.18;;;3.20;95.40;;;;;;4973719;28;20057;-85
2021/03/18 07:52:46;;;;;;;31.02;13.00;;;3.20;95.30;;;;;;4984941;28;20034;-85
2021/03/18 07:55:17;;;;;;;20.38;10.25;;;3.30;95.30;;;;;;4994494;28;20088;-85
2021/03/18 07:57:51;;;;;;;30.05;11.77;;;3.30;95.30;;;;;;4994179;28;20041;-85
2021/03/18 08:00:22;;;;;;;21.88;10.85;;;3.30;95.30;;;;;;4967870;28;20045;-84
2021/03/18 08:02:50;;;;;;;27.40;9.75;;;3.30;95.30;;;;;;4977022;28;20049;-85
2021/03/18 08:05:42;;;;;;;26.20;9.93;;;3.40;95.40;;;;;;4995439;28;20046;-85
2021/03/18 08:08:08;;;;;;;26.93;11.53;;;3.50;95.40;;;;;;4989542;28;20227;-84
2021/03/18 08:10:38;;;;;;;27.30;9.55;;;3.60;95.40;;;;;;4967597;28;20039;-85
2021/03/18 08:13:04;;;;;;;19.35;9.95;;;3.60;95.40;;;;;;4984922;28;20047;-88
2021/03/18 08:15:40;;;;;;;31.98;10.75;;;3.70;95.40;;;;;;5005520;28;20038;-86
2021/03/18 08:18:15;;;;;;;19.77;8.55;;;3.80;95.40;;;;;;4974077;28;20049;-86
2021/03/18 08:20:41;;;;;;;24.80;9.70;;;3.80;95.40;;;;;;4988916;28;20089;-88
2021/03/18 08:23:29;;;;;;;24.00;9.52;;;3.90;95.30;;;;;;4990382;28;20111;-87
2021/03/18 08:26:02;;;;;;;15.13;8.85;;;4.00;95.40;;;;;;4982804;28;20034;-85
2021/03/18 08:28:38;;;;;;;21.50;8.50;;;4.00;95.30;;;;;;4988664;28;20126;-85
2021/03/18 08:31:05;;;;;;;20.60;8.00;;;4.10;95.30;;;;;;4989406;28;20038;-85
2021/03/18 08:33:33;;;;;;;23.05;9.65;;;4.10;95.30;;;;;;4998457;28;20042;-88
2021/03/18 08:36:24;;;;;;;20.63;8.57;;;4.20;95.30;;;;;;4985402;28;20035;-87
2021/03/18 08:38:52;;;;;;;15.00;8.02;;;4.20;95.30;;;;;;4984574;28;20041;-88
2021/03/18 08:41:54;;;;;;;19.75;8.73;;;4.30;95.30;;;;;;4989070;28;20030;-86
2021/03/18 08:44:25;;;;;;;23.42;8.48;;;4.40;95.20;;;;;;4889882;29;20040;-85
2021/03/18 08:46:55;;;;;;;22.55;8.75;;;4.40;95.20;;;;;;4938808;28;20141;-86
2021/03/18 08:49:27;;;;;;;20.13;7.63;;;4.50;95.30;;;;;;4991661;28;20057;-86
2021/03/18 08:51:54;;;;;;;25.58;8.18;;;4.60;95.30;;;;;;4986062;28;20038;-85
2021/03/18 08:54:38;;;;;;;24.08;8.00;;;4.70;95.20;;;;;;4976317;28;20049;-87
2021/03/18 08:57:09;;;;;;;23.55;8.32;;;4.70;95.20;;;;;;4994593;28;20046;-85
2021/03/18 08:59:36;;;;;;;21.00;7.93;;;4.70;95.10;;;;;;4979001;28;20486;-86
2021/03/18 09:02:07;;;;;;;18.88;7.65;;;4.80;95.20;;;;;;4996098;28;20077;-86
2021/03/18 09:04:44;;;;;;;17.30;7.75;;;4.80;95.20;;;;;;4979583;28;20035;-85
2021/03/18 09:07:12;;;;;;;18.30;6.63;;;5.00;95.20;;;;;;4983789;28;20057;-86
2021/03/18 09:09:40;;;;;;;14.75;6.32;;;5.00;95.10;;;;;;4979507;28;20045;-86
2021/03/18 09:12:07;;;;;;;21.63;7.85;;;5.10;95.10;;;;;;4976258;28;20501;-87
2021/03/18 09:14:34;;;;;;;12.98;6.75;;;5.20;95.00;;;;;;4991164;28;20046;-84
2021/03/18 09:17:12;;;;;;;16.77;7.20;;;5.30;95.00;;;;;;4986482;28;20514;-85
2021/03/18 09:19:44;;;;;;;17.52;6.38;;;5.30;95.00;;;;;;4986374;28;20089;-87
2021/03/18 09:22:14;;;;;;;19.60;6.72;;;5.40;94.90;;;;;;4986111;28;20513;-84
2021/03/18 09:24:43;;;;;;;19.73;7.28;;;5.40;94.90;;;;;;4997619;28;20035;-85
2021/03/18 09:27:14;;;;;;;18.52;6.28;;;5.40;94.80;;;;;;4998437;28;20256;-86
2021/03/18 09:29:43;;;;;;;18.48;7.25;;;5.40;94.80;;;;;;4978034;28;20042;-85
2021/03/18 09:32:11;;;;;;;19.30;7.55;;;5.40;94.80;;;;;;4990580;28;20326;-87
2021/03/18 09:34:38;;;;;;;21.90;7.63;;;5.50;94.80;;;;;;5011688;28;20027;-88
2021/03/18 09:37:05;;;;;;;17.13;7.63;;;5.60;94.80;;;;;;4992150;28;20035;-84
2021/03/18 09:39:31;;;;;;;21.02;8.35;;;5.70;94.80;;;;;;4996705;28;20027;-88
2021/03/18 09:42:01;;;;;;;15.65;7.20;;;5.80;94.70;;;;;;4987893;28;20169;-84
2021/03/18 09:44:29;;;;;;;26.08;7.13;;;5.90;94.70;;;;;;4988566;28;20035;-87
2021/03/18 09:46:57;;;;;;;17.60;6.32;;;5.90;94.70;;;;;;4981352;28;20303;-86
2021/03/18 09:49:35;;;;;;;17.40;6.88;;;6.00;94.60;;;;;;4989393;28;20038;-87
2021/03/18 09:52:07;;;;;;;18.00;6.13;;;6.00;94.40;;;;;;4993940;28;20125;-86
2021/03/18 09:54:33;;;;;;;15.63;5.97;;;6.10;94.30;;;;;;4984492;28;20038;-85
2021/03/18 09:57:05;;;;;;;17.98;6.97;;;6.10;94.20;;;;;;4983008;28;20131;-85
2021/03/18 09:59:31;;;;;;;19.17;6.20;;;6.00;94.10;;;;;;4982685;28;20106;-87
2021/03/18 10:01:57;;;;;;;20.45;6.60;;;6.00;94.20;;;;;;4981201;28;20081;-87
2021/03/18 10:04:24;;;;;;;15.77;5.60;;;6.00;94.10;;;;;;4963063;28;20065;-86
2021/03/18 10:06:53;;;;;;;22.83;7.50;;;5.90;94.10;;;;;;4984213;28;20060;-85
2021/03/18 10:09:29;;;;;;;19.52;7.10;;;6.00;94.10;;;;;;4997308;28;20030;-88
2021/03/18 10:11:54;;;;;;;19.50;7.18;;;6.00;94.10;;;;;;4981656;28;20337;-85
2021/03/18 10:14:29;;;;;;;19.60;6.55;;;6.20;94.10;;;;;;4978253;28;20173;-85
2021/03/18 10:16:56;;;;;;;15.50;7.07;;;6.30;94.10;;;;;;4975775;28;20030;-86
2021/03/18 10:19:30;;;;;;;15.00;6.35;;;6.50;94.10;;;;;;4979438;28;20589;-87
2021/03/18 10:22:00;;;;;;;31.65;8.10;;;6.60;94.00;;;;;;4980796;28;20034;-86
2021/03/18 10:24:26;;;;;;;21.60;6.85;;;6.70;93.80;;;;;;4978960;28;21903;-85
2021/03/18 10:26:52;;;;;;;20.40;6.60;;;6.90;93.80;;;;;;4928966;28;20050;-85
2021/03/18 10:29:19;;;;;;;22.05;6.38;;;7.00;93.60;;;;;;4976602;28;20157;-84
2021/03/18 10:31:44;;;;;;;19.77;6.47;;;7.00;93.40;;;;;;4994913;28;20042;-85
2021/03/18 10:34:28;;;;;;;16.00;5.20;;;7.00;93.20;;;;;;4974652;28;20388;-85
2021/03/18 10:36:54;;;;;;;23.73;5.68;;;7.10;93.30;;;;;;4972215;28;20034;-86
2021/03/18 10:39:23;;;;;;;19.60;5.22;;;7.00;93.00;;;;;;5004275;28;20485;-85
2021/03/18 10:41:59;;;;;;;22.13;4.85;;;7.00;93.10;;;;;;4977532;28;20045;-88
2021/03/18 10:44:39;;;;;;;19.38;5.05;;;7.00;92.90;;;;;;4973901;28;20126;-86
2021/03/18 10:47:22;;;;;;;24.13;5.30;;;7.00;92.90;;;;;;4978963;28;20034;-88
2021/03/18 10:50:05;;;;;;;16.88;5.97;;;7.00;92.90;;;;;;4971559;28;20039;-85
2021/03/18 10:52:32;;;;;;;24.20;5.47;;;7.00;92.90;;;;;;4961472;28;20055;-86
2021/03/18 10:54:58;;;;;;;19.80;5.18;;;6.90;92.80;;;;;;4979010;28;20053;-87
2021/03/18 10:57:26;;;;;;;20.85;5.03;;;6.90;92.70;;;;;;4968083;28;20118;-84
2021/03/18 10:59:59;;;;;;;22.00;5.05;;;7.00;92.80;;;;;;4961240;28;20515;-85
2021/03/18 11:02:26;;;;;;;25.92;5.70;;;7.00;92.70;;;;;;4976272;28;20546;-85
2021/03/18 11:04:54;;;;;;;25.70;5.32;;;7.10;92.60;;;;;;4974967;28;20030;-85
2021/03/18 11:07:21;;;;;;;18.02;5.15;;;7.20;92.80;;;;;;4963782;28;20116;-87
2021/03/18 11:10:15;;;;;;;17.75;4.80;;;7.30;92.40;;;;;;4954374;28;20562;-86
2021/03/18 11:12:41;;;;;;;23.15;5.38;;;7.50;92.20;;;;;;4956443;28;20038;-86
2021/03/18 11:15:09;;;;;;;19.58;4.28;;;7.70;92.40;;;;;;4963418;28;20054;-86
2021/03/18 11:17:36;;;;;;;19.75;4.93;;;7.80;92.00;;;;;;4960296;28;20219;-86
2021/03/18 11:20:16;;;;;;;17.65;4.18;;;7.90;91.90;;;;;;4973631;28;20078;-86
2021/03/18 11:22:43;;;;;;;19.02;4.05;;;7.90;91.40;;;;;;4953762;28;20129;-87
2021/03/18 11:25:12;;;;;;;13.98;3.08;;;7.90;91.50;;;;;;4974949;28;20615;-86
2021/03/18 11:27:38;;;;;;;14.05;3.55;;;7.80;91.00;;;;;;4985089;28;20561;-88
2021/03/18 11:30:06;;;;;;;13.38;3.05;;;7.70;91.20;;;;;;4989941;28;20030;-85
2021/03/18 11:32:32;;;;;;;14.32;2.97;;;7.60;91.10;;;;;;4968885;28;20042;-85
2021/03/18 11:35:01;;;;;;;13.73;2.95;;;7.60;90.90;;;;;;4988715;28;20038;-86
2021/03/18 11:37:27;;;;;;;15.07;2.90;;;7.70;90.70;;;;;;4960774;28;20325;-86
2021/03/18 11:39:56;;;;;;;12.35;2.33;;;7.70;90.70;;;;;;4978793;28;20024;-90
2021/03/18 11:42:26;;;;;;;8.30;1.87;;;7.70;90.40;;;;;;4964587;28;20062;-87
2021/03/18 11:44:52;;;;;;;14.48;2.10;;;7.70;90.00;;;;;;4977001;28;20282;-85
2021/03/18 11:47:18;;;;;;;15.88;2.72;;;7.60;90.00;;;;;;4960083;28;20031;-85
2021/03/18 11:49:44;;;;;;;10.93;2.10;;;7.50;90.00;;;;;;4958767;28;20034;-85
2021/03/18 11:52:12;;;;;;;13.30;2.17;;;7.40;89.50;;;;;;4943374;28;20046;-86
2021/03/18 11:54:38;;;;;;;10.35;1.95;;;7.40;90.00;;;;;;4980405;28;20035;-86
2021/03/18 11:57:06;;;;;;;11.57;2.45;;;7.30;89.70;;;;;;4980132;28;20053;-86
2021/03/18 11:59:33;;;;;;;11.90;2.33;;;7.20;89.30;;;;;;4998638;28;20402;-86
2021/03/18 12:01:59;;;;;;;9.48;1.98;;;7.20;89.40;;;;;;4973557;28;20034;-85
2021/03/18 12:04:25;;;;;;;8.43;2.35;;;7.20;89.50;;;;;;4975296;28;20065;-86
2021/03/18 12:06:51;;;;;;;8.90;2.13;;;7.30;89.60;;;;;;4969548;28;20030;-86
2021/03/18 12:09:17;;;;;;;6.20;1.92;;;7.30;89.40;;;;;;4997656;28;20121;-85
2021/03/18 12:11:43;;;;;;;8.65;1.75;;;7.30;89.70;;;;;;4952017;28;20070;-89
2021/03/18 12:14:09;;;;;;;8.80;1.63;;;7.30;89.40;;;;;;4964722;28;20555;-87
2021/03/18 12:16:35;;;;;;;12.07;2.58;;;7.30;89.20;;;;;;4964885;28;20069;-85
2021/03/18 12:19:01;;;;;;;8.95;1.90;;;7.40;89.30;;;;;;4973718;28;20122;-84
2021/03/18 12:21:26;;;;;;;13.50;2.20;;;7.40;89.10;;;;;;4994223;28;20046;-86
2021/03/18 12:23:52;;;;;;;15.00;2.20;;;7.40;89.20;;;;;;4976136;28;20035;-86
2021/03/18 12:26:18;;;;;;;12.68;2.45;;;7.50;89.20;;;;;;4974351;28;20510;-85
2021/03/18 12:28:44;;;;;;;8.40;2.03;;;7.60;89.80;;;;;;4988065;28;20050;-85
2021/03/18 12:31:10;;;;;;;10.68;2.35;;;7.70;90.00;;;;;;4963492;28;20034;-85
2021/03/18 12:33:36;;;;;;;9.65;2.40;;;7.70;89.50;;;;;;4976803;28;20059;-85
2021/03/18 12:36:02;;;;;;;16.35;2.72;;;7.70;89.30;;;;;;4976955;28;20577;-85
2021/03/18 12:38:27;;;;;;;7.15;2.05;;;7.70;89.10;;;;;;4973273;28;20124;-84
2021/03/18 12:40:54;;;;;;;8.77;2.40;;;7.80;89.20;;;;;;4984041;28;20042;-86
2021/03/18 12:43:21;;;;;;;15.05;2.63;;;7.90;89.20;;;;;;4974734;28;20035;-85
2021/03/18 12:45:48;;;;;;;10.68;2.80;;;8.00;88.90;;;;;;4975911;28;20513;-86
2021/03/18 12:48:14;;;;;;;12.23;2.80;;;7.90;88.90;;;;;;4958421;28;20405;-85
2021/03/18 12:50:40;;;;;;;9.23;2.53;;;8.00;88.70;;;;;;4951876;28;20121;-86
2021/03/18 12:53:06;;;;;;;8.45;2.08;;;8.00;88.50;;;;;;4963847;28;20085;-86
2021/03/18 12:55:32;;;;;;;13.73;2.25;;;8.00;88.40;;;;;;4980121;28;20512;-86
2021/03/18 12:57:59;;;;;;;10.95;2.42;;;8.00;89.00;;;;;;4962787;28;20343;-86